EST,Max TemperatureF,Mean TemperatureF,Min TemperatureF,Max Dew PointF,MeanDew PointF,Min DewpointF,Max Humidity, Mean Humidity, Min Humidity, Max Sea Level PressureIn, Mean Sea Level PressureIn, Min Sea Level PressureIn, Max VisibilityMiles, Mean VisibilityMiles, Min VisibilityMiles, Max Wind SpeedMPH, Mean Wind SpeedMPH, Max Gust SpeedMPH,PrecipitationIn, CloudCover, Events, WindDirDegrees
2013-12-1,46,36,27,32,27,23,89,61,46,30.23,30.11,29.98,10,10,10,10,2,,0.00,8,,206
2013-12-2,51,45,39,36,34,32,79,66,52,29.97,29.87,29.81,10,10,10,7,1,,0.00,8,,244
2013-12-3,57,47,37,39,37,34,89,71,46,29.90,29.87,29.82,10,10,6,8,2,,0.00,2,,235
2013-12-4,64,50,37,46,42,36,93,68,48,29.98,29.91,29.87,10,10,9,8,2,,0.00,2,,164
2013-12-5,69,58,46,58,54,44,96,83,58,30.04,29.92,29.87,10,6,1,15,5,24,0.69,7,Rain,239
2013-12-6,46,39,30,45,35,28,93,90,87,30.23,30.10,30.01,10,7,2,15,8,,1.05,8,Rain-Snow,4
2013-12-7,30,27,24,28,25,18,93,84,69,30.56,30.40,30.23,10,8,2,9,6,,0.01,7,Snow,346
2013-12-8,34,28,23,31,26,18,93,86,79,30.53,30.26,30.06,10,6,0,9,5,,0.21,7,Fog-Rain-Snow,36
2013-12-9,39,36,32,39,34,27,100,91,76,30.17,30.06,29.97,10,5,0,13,3,17,0.17,8,Fog-Rain,232
2013-12-10,32,29,25,27,21,13,93,75,58,30.30,30.12,30.02,10,7,1,14,7,25,0.01,6,Snow,270
2013-12-11,34,26,19,18,15,13,77,62,48,30.40,30.34,30.27,10,10,10,13,8,20,0.01,1,,238
2013-12-12,26,22,17,13,7,3,71,55,39,30.51,30.41,30.33,10,10,10,14,9,23,0.00,3,,261
2013-12-13,37,29,21,21,11,6,72,47,35,30.32,30.28,30.23,10,10,10,14,8,,0.00,1,,228
2013-12-14,44,37,30,41,33,19,96,83,54,30.24,29.94,29.68,10,8,1,8,3,,0.32,8,Rain-Snow,136
2013-12-15,43,34,26,40,28,20,93,82,66,30.05,29.84,29.66,10,8,3,15,11,24,0.05,8,Rain-Snow,261
2013-12-16,30,28,26,28,25,22,93,85,75,30.16,30.10,30.05,10,5,1,12,6,17,0.05,8,Rain-Snow,251
2013-12-17,37,32,28,34,29,23,89,81,72,30.08,29.99,29.93,10,8,2,13,6,20,0.07,8,Rain-Snow,256
2013-12-18,34,31,28,25,20,19,86,69,56,30.23,30.18,30.07,10,10,5,16,11,22,0.00,5,Snow,240
2013-12-19,57,44,30,31,22,15,61,42,32,30.17,30.11,30.04,10,10,10,21,5,29,0.00,0,,212
2013-12-20,61,54,46,49,35,21,86,52,33,30.05,29.99,29.93,10,10,7,15,8,23,0.03,6,Rain,210
2013-12-21,70,62,57,57,52,48,93,70,59,29.96,29.84,29.68,10,10,10,13,8,,0.15,6,Rain,199
2013-12-22,72,64,55,57,53,50,90,76,53,29.96,29.84,29.63,10,10,7,23,14,36,0.35,4,Rain,213
2013-12-23,57,44,30,50,38,20,94,83,64,30.30,30.12,29.95,10,8,2,14,6,20,0.31,8,Rain,272
2013-12-24,30,23,16,22,15,5,81,66,43,30.53,30.36,30.24,10,8,1,20,8,30,0.01,6,Snow,277
2013-12-25,35,25,15,19,11,7,77,57,34,30.52,30.39,30.23,10,10,10,9,1,,0.00,3,,196
2013-12-26,39,34,27,27,21,13,93,63,39,30.38,30.26,30.18,10,8,1,16,7,24,0.02,5,Snow,241
2013-12-27,44,34,25,20,17,16,72,51,32,30.42,30.37,30.33,10,10,10,13,4,18,0.00,2,,202
2013-12-28,50,42,34,25,21,17,53,44,36,30.32,30.24,30.08,10,10,10,15,6,20,0.00,0,,204
2013-12-29,43,40,37,41,38,27,100,89,65,30.04,29.79,29.67,10,6,0,15,5,23,0.66,8,Fog-Rain,259
2013-12-30,39,32,26,37,28,20,93,85,66,30.19,30.06,29.89,10,8,3,14,7,23,0.13,8,Rain-Snow,293
2013-12-31,28,26,24,25,19,15,86,71,59,30.35,30.23,30.10,10,8,2,20,9,28,0.00,7,Snow,233